Historyczne dane pomiarowe

Dodano dane terminowe – wersja testowa.

Dane z okresu 1951-2019

Wersja bazy: 1.34 [2019-03-16, lista zmian], aktualizacja planowana na 2019-04-15

Dane meteo z obszaru Polski uzyskane na podstawie danych udostępnionych przez Instytut Meteorologii i Gospodarki Wodnej – Państwowy Instytut Badawczy.

 

Wybierz Datę:    

       

TemperaturaWilgotnośćWiatrCiśnienieOpadyŚniegCzas trwania zjawisk
 Stacja t tx tn tng RH VA  wxwx mslp ppp RRR   cm mm wxwxwxwxwxwxwx
1987-08-14 14.9 23.2 6.1- 74.5- 5.3 1.3---- 1.4------------
1987-08-13 12.8 18.8 5.1- 71.5- 5.0 1.3---- 0.0------------
1987-08-12 12.0 18.3 6.7- 70.3- 3.7 4.7---- 0.0------------
1987-08-11 13.3 18.4 10.7- 74.3- 5.3 3.3---- 1.4------------
1987-08-10 15.6 19.2 14.4- 77.3- 8.0 2.0---- 0.7------------
1987-08-09 16.9 23.8 6.4- 64.8- 3.7 2.0---- 0.0------------
1987-08-08 14.5 19.6 9.5- 70.5- 4.0 0.7---- 0.0------------
1987-08-07 12.5 17.4 4.8- 70.8- 5.0 1.7---- 0.3------------
1987-08-06 11.3 16.1 8.8- 78.3- 7.3 4.0---- 4.0------------
1987-08-05 13.4 17.5 9.7- 73.0- 7.7 0.3---- 0.7------------
1987-08-04 14.2 17.9 10.3- 87.5- 7.3 0.7---- 1.5------------
1987-08-03 15.3 21.1 11.7- 76.5- 4.0 1.7---- 0.0------------
1987-08-02 15.1 19.4 13.0- 76.5- 7.0 4.0---- 2.5------------
1987-08-01 16.1 22.6 8.0- 77.0- 3.3 0.3---- 0.9------------
1987-07-31 16.6 21.9 12.7- 77.8- 8.0 2.3---- 11.6------------
1987-07-30 17.2 23.2 11.8- 72.8- 3.7 1.0---- 0.0------------
1987-07-29 13.9 19.9 10.0- 76.3- 4.7 0.7---- 0.0------------
1987-07-28 13.4 16.1 11.9- 85.3- 7.3 0.7---- 11.4------------
1987-07-27 13.8 19.4 9.7- 67.0- 6.3 1.3---- 1.0------------
1987-07-26 14.0 20.0 11.6- 91.8- 8.0 4.0---- 13.0------------
1987-07-25 19.7 24.7 14.5- 79.8- 6.0 1.3---- 0.0------------
1987-07-24 21.5 28.2 15.7- 81.8- 5.3 1.3---- 2.0------------
1987-07-23 21.5 28.1 14.9- 75.0- 0.0 0.3---- 0.5------------
1987-07-22 19.9 25.1 15.3- 81.0- 5.7 2.7---- 0.0------------
1987-07-21 20.5 27.2 12.5- 76.3- 3.0 0.7---- 0.0------------
1987-07-20 21.6 25.4 16.8- 75.8- 5.3 1.0---- 0.1------------
1987-07-19 24.3 30.3 16.3- 77.0- 5.7 0.3---- 2.1------------
1987-07-18 23.8 29.0 15.9- 75.3- 2.7 1.7---- 0.0------------
1987-07-17 21.5 28.0 13.2- 71.3- 7.7 1.3---- 0.0------------
1987-07-16 19.3 27.0 9.7- 75.0- 3.7 1.0---- 0.0------------
1987-07-15 16.4 22.9 6.7- 72.5- 0.3 1.0---- 0.0------------
1987-07-14 17.3 20.9 11.3- 66.3- 2.3 1.0---- 0.0------------
1987-07-13 19.3 24.7 14.9- 80.0- 6.3 1.3---- 0.0------------
1987-07-12 20.8 27.5 10.0- 72.0- 3.7 2.0---- 6.0------------
1987-07-11 16.5 24.6 7.9- 69.3- 0.3 1.7---- 0.0------------
1987-07-10 15.8 19.2 12.3- 75.0- 3.0 3.3---- 0.0------------
1987-07-09 19.1 24.7 13.4- 77.0- 6.0 3.3---- 6.5------------
1987-07-08 19.8 27.6 8.6- 61.8- 0.0 4.0---- 0.0------------
1987-07-07 17.0 24.5 6.6- 65.5- 0.0 1.0---- 0.0------------
1987-07-06 16.9 22.1 9.0- 69.0- 0.7 1.0---- 0.0------------
1987-07-05 16.3 19.5 13.3- 81.5- 8.0 1.7---- 0.4------------
1987-07-04 19.7 23.4 14.4- 71.0- 6.3 0.7---- 1.1------------
1987-07-03 19.5 22.3 16.3- 75.8- 6.7 1.7---- 0.0------------
1987-07-02 20.2 25.6 18.3- 88.3- 8.0 3.7---- 0.0------------
1987-07-01 23.5 29.8 15.3- 75.0- 0.3 1.3---- 0.0------------
1987-06-30 21.9 28.1 13.5- 75.3- 0.0 0.3---- 0.0------------
1987-06-29 20.8 25.0 16.7- 76.0- 4.0 0.0---- 0.0------------
1987-06-28 19.5 24.5 14.2- 77.3- 4.3 0.7---- 0.0------------
1987-06-27 18.6 24.0 15.9- 79.3- 4.3 1.0---- 5.0------------
1987-06-26 15.9 22.8 6.3- 70.5- 1.7 4.7---- 0.0------------
1987-06-25 14.8 19.0 13.0- 81.3- 6.3 5.7---- 0.6------------
1987-06-24 17.1 21.1 12.7- 73.5- 5.3 4.0---- 0.0------------
1987-06-23 16.1 20.1 14.0- 82.3- 6.0 3.0---- 0.0------------
1987-06-22 16.5 21.7 11.5- 80.5- 5.7 3.0---- 4.5------------
1987-06-21 17.3 23.1 7.4- 72.3- 3.3 0.3---- 0.0------------
1987-06-20 14.9 21.8 4.8- 70.5- 1.3 1.3---- 0.0------------
1987-06-19 12.7 17.3 8.3- 80.0- 3.3 1.0---- 0.0------------
1987-06-18 9.6 16.8 3.3- 91.0- 6.0 2.3---- 5.0------------
1987-06-17 10.6 15.4 9.7- 84.0- 6.0 1.3---- 0.0------------
1987-06-16 16.0 21.0 12.2- 74.5- 8.0 10.0---- 0.9------------
364.6 ms

 

Źródłem pochodzenia danych jest Instytut Meteorologii i Gospodarki Wodnej – Państwowy Instytut Badawczy. Dane Instytutu Meteorologii i Gospodarki Wodnej – Państwowego Instytutu Badawczego zostały przetworzone.

Dane źródłowe można odnaleźć na stronie https://dane.imgw.pl